Time;durP1;ratioP1;P1;durP2;ratioP2;P2;SDS_P1;SDS_P2;PMS_P1;PMS_P2;Temp;Humidity;BMP_temperature;BMP_pressure;BME280_temperature;BME280_humidity;BME280_pressure;Samples;Min_cycle;Max_cycle;Signal;HPM_P1;HPM_P2
2023/01/11 05:31:55;;;;;;;;;0.67;0.00;;;;;-147.14;100.00;58812.66;6226261;22;45481;-73
2023/01/11 05:34:21;;;;;;;;;4.67;1.00;;;;;-147.14;100.00;58812.66;6247501;22;45494;-72
2023/01/11 05:36:46;;;;;;;;;2.67;1.00;;;;;-147.14;100.00;58812.66;6245762;22;45531;-73
2023/01/11 05:39:13;;;;;;;;;2.00;1.00;;;;;-147.14;100.00;58812.66;6245202;22;65407;-73
2023/01/11 05:41:38;;;;;;;;;2.00;0.00;;;;;-147.14;100.00;58812.66;6246312;22;45343;-73
2023/01/11 05:46:47;;;;;;;;;0.33;0.33;;;;;-147.14;100.00;58812.66;6246064;22;45273;-73
2023/01/11 05:49:13;;;;;;;;;1.00;1.00;;;;;-147.14;100.00;58812.66;6245473;22;62594;-73
2023/01/11 05:51:39;;;;;;;;;5.67;4.67;;;;;-147.14;100.00;58812.66;6246046;22;45299;-73
2023/01/11 05:54:06;;;;;;;;;5.33;3.00;;;;;-147.14;100.00;58812.66;6246676;22;45235;-73
2023/01/11 05:56:32;;;;;;;;;2.33;1.33;;;;;-147.14;100.00;58812.66;6246433;22;45179;-73
2023/01/11 05:58:57;;;;;;;;;1.67;1.00;;;;;-147.14;100.00;58812.66;6246335;22;45198;-73
2023/01/11 06:01:24;;;;;;;;;2.00;2.00;;;;;-147.14;100.00;58812.66;6219540;22;45201;-73
2023/01/11 06:03:49;;;;;;;;;3.00;3.00;;;;;-147.14;100.00;58812.66;6247271;22;45221;-73
2023/01/11 06:06:16;;;;;;;;;2.00;1.00;;;;;-147.14;100.00;58812.66;6245894;22;45414;-73
2023/01/11 06:08:41;;;;;;;;;1.67;0.33;;;;;-147.14;100.00;58812.66;6247623;22;46171;-73
2023/01/11 06:11:06;;;;;;;;;2.67;1.00;;;;;-147.14;100.00;58812.66;6245754;22;54965;-72
2023/01/11 06:13:32;;;;;;;;;1.00;1.00;;;;;-147.14;100.00;58812.66;6246431;22;58076;-72
2023/01/11 06:16:04;;;;;;;;;1.00;1.00;;;;;-147.14;100.00;58812.66;6245897;22;45292;-72
2023/01/11 06:18:31;;;;;;;;;3.00;1.00;;;;;-147.14;100.00;58812.66;6246247;22;46792;-73
2023/01/11 06:20:57;;;;;;;;;4.00;1.67;;;;;-147.14;100.00;58812.66;6245619;22;45296;-74
2023/01/11 06:23:23;;;;;;;;;1.33;1.00;;;;;-147.14;100.00;58812.66;6245151;22;45354;-72
2023/01/11 06:25:48;;;;;;;;;5.33;2.67;;;;;-147.14;100.00;58812.66;6245699;22;45418;-72
2023/01/11 06:28:14;;;;;;;;;7.33;3.00;;;;;-147.14;100.00;58812.66;6245670;22;45295;-73
2023/01/11 06:30:56;;;;;;;;;3.00;3.00;;;;;-147.14;100.00;58812.66;6245137;22;45320;-73
2023/01/11 06:33:23;;;;;;;;;5.67;3.00;;;;;-147.14;100.00;58812.66;6245673;22;45489;-73
2023/01/11 06:35:49;;;;;;;;;2.67;2.67;;;;;-147.14;100.00;58812.66;6245537;22;45253;-72
2023/01/11 06:38:15;;;;;;;;;3.00;3.00;;;;;-147.14;100.00;58812.66;6244483;22;46109;-72
2023/01/11 06:40:41;;;;;;;;;5.67;1.67;;;;;-147.14;100.00;58812.66;6244955;22;45273;-72
2023/01/11 06:43:08;;;;;;;;;4.00;2.00;;;;;-147.14;100.00;58812.66;6244576;22;55068;-72
2023/01/11 06:45:33;;;;;;;;;7.33;3.00;;;;;-147.14;100.00;58812.66;6245874;22;45276;-73
2023/01/11 06:47:59;;;;;;;;;4.00;2.33;;;;;-147.14;100.00;58812.66;6245568;22;45209;-73
2023/01/11 06:50:25;;;;;;;;;7.33;4.00;;;;;-147.14;100.00;58812.66;6246909;22;45228;-73
2023/01/11 06:52:54;;;;;;;;;5.00;3.00;;;;;-147.14;100.00;58812.66;6245027;22;45292;-73
2023/01/11 06:55:21;;;;;;;;;4.00;3.00;;;;;-147.14;100.00;58812.66;6245531;22;45277;-74
2023/01/11 06:57:46;;;;;;;;;4.00;3.00;;;;;-147.14;100.00;58812.66;6246466;22;46113;-74
2023/01/11 07:00:12;;;;;;;;;1.67;0.00;;;;;-147.14;100.00;58812.66;6244470;22;45375;-74
2023/01/11 07:02:37;;;;;;;;;6.00;5.00;;;;;-147.14;100.00;58812.66;6245197;22;45336;-74
2023/01/11 07:05:03;;;;;;;;;8.00;5.00;;;;;-147.14;100.00;58812.66;6243877;22;61432;-74
2023/01/11 07:07:28;;;;;;;;;5.00;3.00;;;;;-147.14;100.00;58812.66;6245574;22;45846;-74
2023/01/11 07:09:54;;;;;;;;;6.00;3.33;;;;;-147.14;100.00;58812.66;6244499;22;63331;-74
2023/01/11 07:12:19;;;;;;;;;3.33;3.00;;;;;-147.14;100.00;58812.66;6246457;22;45622;-74
2023/01/11 07:14:45;;;;;;;;;8.33;4.00;;;;;-147.14;100.00;58812.66;6244833;22;45482;-74
2023/01/11 07:17:10;;;;;;;;;3.67;3.00;;;;;-147.14;100.00;58812.66;6244457;22;46375;-72
2023/01/11 07:19:35;;;;;;;;;7.00;3.33;;;;;-147.14;100.00;58812.66;6245707;22;48314;-69
2023/01/11 07:22:01;;;;;;;;;3.33;2.00;;;;;-147.14;100.00;58812.66;6245029;22;57135;-71
2023/01/11 07:24:27;;;;;;;;;5.67;4.00;;;;;-147.14;100.00;58812.66;6243553;22;58213;-71
2023/01/11 07:26:53;;;;;;;;;2.00;1.67;;;;;-147.14;100.00;58812.66;6244107;22;46147;-66
2023/01/11 07:29:19;;;;;;;;;6.67;2.00;;;;;-147.14;100.00;58812.66;6245720;22;45252;-66
2023/01/11 07:31:45;;;;;;;;;3.67;1.00;;;;;-147.14;100.00;58812.66;6245066;22;45208;-66
2023/01/11 07:34:10;;;;;;;;;7.33;2.00;;;;;-147.14;100.00;58812.66;6246060;22;45491;-65
2023/01/11 07:36:38;;;;;;;;;5.67;4.33;;;;;-147.14;100.00;58812.66;6245950;22;46126;-65
2023/01/11 07:39:04;;;;;;;;;6.67;2.00;;;;;-147.14;100.00;58812.66;6246519;22;45218;-66
2023/01/11 07:44:13;;;;;;;;;2.33;2.00;;;;;-147.14;100.00;58812.66;6247135;22;45245;-66
2023/01/11 07:46:38;;;;;;;;;5.00;3.00;;;;;-147.14;100.00;58812.66;6247178;22;45234;-65
2023/01/11 07:49:04;;;;;;;;;6.00;4.00;;;;;-147.14;100.00;58812.66;6246549;22;52578;-65
2023/01/11 07:51:29;;;;;;;;;1.67;1.67;;;;;-147.14;100.00;58812.66;6247127;22;55371;-65
2023/01/11 07:53:54;;;;;;;;;3.00;2.00;;;;;-147.14;100.00;58812.66;6246586;22;48437;-65
2023/01/11 07:56:20;;;;;;;;;6.00;4.00;;;;;-147.14;100.00;58812.66;6246817;22;46021;-65
2023/01/11 07:58:45;;;;;;;;;4.00;4.00;;;;;-147.14;100.00;58812.66;6246384;22;65021;-65
2023/01/11 08:01:10;;;;;;;;;4.00;2.33;;;;;-147.14;100.00;58812.66;6246686;22;45593;-66
2023/01/11 08:03:36;;;;;;;;;6.00;2.00;;;;;-147.14;100.00;58812.66;6246703;22;60269;-65
2023/01/11 08:06:01;;;;;;;;;5.33;3.00;;;;;-147.14;100.00;58812.66;6246073;22;62767;-66
2023/01/11 08:08:26;;;;;;;;;4.33;2.33;;;;;-147.14;100.00;58812.66;6246544;22;62997;-65
2023/01/11 08:16:20;;;;;;;;;8.33;3.33;;;;;-147.14;100.00;58812.66;6246868;22;45280;-66
2023/01/11 08:18:45;;;;;;;;;5.00;3.67;;;;;-147.14;100.00;58812.66;6245987;22;63313;-66
2023/01/11 08:21:10;;;;;;;;;8.67;4.00;;;;;-147.14;100.00;58812.66;6218632;22;53480;-66
2023/01/11 08:23:36;;;;;;;;;4.00;3.00;;;;;-147.14;100.00;58812.66;6246901;22;54946;-66
2023/01/11 08:26:01;;;;;;;;;9.00;4.67;;;;;-147.14;100.00;58812.66;6245454;22;67135;-66
2023/01/11 08:28:26;;;;;;;;;6.67;4.67;;;;;-147.14;100.00;58812.66;6246540;22;65551;-66
2023/01/11 08:30:52;;;;;;;;;4.00;3.00;;;;;-147.14;100.00;58812.66;6246030;22;50113;-66
2023/01/11 08:33:17;;;;;;;;;3.33;2.00;;;;;-147.14;100.00;58812.66;6246796;22;45264;-66
2023/01/11 08:35:43;;;;;;;;;6.33;3.33;;;;;-147.14;100.00;58812.66;6246782;22;46177;-66
2023/01/11 08:38:08;;;;;;;;;5.00;3.33;;;;;-147.14;100.00;58812.66;6246508;22;45235;-66
2023/01/11 08:40:34;;;;;;;;;5.00;3.33;;;;;-147.14;100.00;58812.66;6247092;22;45537;-66
2023/01/11 08:42:59;;;;;;;;;5.00;3.00;;;;;-147.14;100.00;58812.66;6246363;22;45436;-66
2023/01/11 08:45:25;;;;;;;;;4.00;2.00;;;;;-147.14;100.00;58812.66;6245946;22;67901;-66
2023/01/11 08:47:50;;;;;;;;;5.33;2.67;;;;;-147.14;100.00;58812.66;6219768;22;45643;-66
2023/01/11 08:50:17;;;;;;;;;6.67;3.67;;;;;-147.14;100.00;58812.66;6246248;22;45364;-66
2023/01/11 08:52:42;;;;;;;;;3.67;3.00;;;;;-147.14;100.00;58812.66;6246861;22;45454;-66
2023/01/11 08:55:08;;;;;;;;;2.00;2.00;;;;;-147.14;100.00;58812.66;6246360;22;45966;-66
2023/01/11 08:57:35;;;;;;;;;2.67;2.67;;;;;-147.14;100.00;58812.66;6247099;22;45232;-66
2023/01/11 09:00:04;;;;;;;;;4.67;2.67;;;;;-147.14;100.00;58812.66;6246076;22;45232;-66
2023/01/11 09:02:29;;;;;;;;;5.00;4.00;;;;;-147.14;100.00;58812.66;6246738;22;45236;-66
2023/01/11 09:04:54;;;;;;;;;3.67;3.00;;;;;-147.14;100.00;58812.66;6245462;22;59631;-67
2023/01/11 09:07:20;;;;;;;;;5.33;4.00;;;;;-147.14;100.00;58812.66;6245958;22;64983;-66
2023/01/11 09:09:46;;;;;;;;;4.67;4.00;;;;;-147.14;100.00;58812.66;6247403;22;45259;-66
2023/01/11 09:12:13;;;;;;;;;1.33;1.33;;;;;-147.14;100.00;58812.66;6245486;22;45452;-65
2023/01/11 09:14:38;;;;;;;;;4.33;2.67;;;;;-147.14;100.00;58812.66;6246253;22;46104;-65
2023/01/11 09:17:04;;;;;;;;;3.67;3.00;;;;;-147.14;100.00;58812.66;6219181;22;45263;-66
2023/01/11 09:19:29;;;;;;;;;4.33;3.00;;;;;-147.14;100.00;58812.66;6246910;22;45355;-65
2023/01/11 09:21:56;;;;;;;;;6.00;3.00;;;;;-147.14;100.00;58812.66;6245821;22;45271;-65
2023/01/11 09:24:22;;;;;;;;;7.00;4.00;;;;;-147.14;100.00;58812.66;6246560;22;46055;-65
2023/01/11 09:26:47;;;;;;;;;6.33;4.00;;;;;-147.14;100.00;58812.66;6245854;22;57797;-65
2023/01/11 09:29:12;;;;;;;;;4.33;2.33;;;;;-147.14;100.00;58812.66;6246408;22;45649;-65
2023/01/11 09:31:38;;;;;;;;;6.00;4.33;;;;;-147.14;100.00;58812.66;6218868;22;45431;-66
2023/01/11 09:34:05;;;;;;;;;6.00;4.33;;;;;-147.14;100.00;58812.66;6245687;22;45994;-65
2023/01/11 09:36:32;;;;;;;;;5.33;4.00;;;;;-147.14;100.00;58812.66;6246545;22;45349;-65
2023/01/11 09:39:00;;;;;;;;;3.00;2.00;;;;;-147.14;100.00;58812.66;6246275;22;45304;-65
2023/01/11 09:41:49;;;;;;;;;3.00;2.00;;;;;-147.14;100.00;58812.66;6246105;22;45428;-65
2023/01/11 09:44:22;;;;;;;;;5.33;3.00;;;;;-147.14;100.00;58812.66;6218518;22;46085;-65
2023/01/11 09:46:56;;;;;;;;;4.67;2.33;;;;;-147.14;100.00;58812.66;6246425;22;45295;-65
2023/01/11 09:49:26;;;;;;;;;7.33;2.67;;;;;-147.14;100.00;58812.66;6219923;22;45192;-67
2023/01/11 09:52:00;;;;;;;;;6.67;3.00;;;;;-147.14;100.00;58812.66;6245859;22;45381;-66
2023/01/11 09:54:26;;;;;;;;;2.00;1.00;;;;;-147.14;100.00;58812.66;6246107;22;46123;-66
2023/01/11 09:57:14;;;;;;;;;5.00;4.00;;;;;-147.14;100.00;58812.66;6246125;22;45296;-66
2023/01/11 10:00:09;;;;;;;;;5.67;2.33;;;;;-147.14;100.00;58812.66;6246794;22;45102;-66
2023/01/11 10:02:34;;;;;;;;;3.67;2.00;;;;;-147.14;100.00;58812.66;6246354;22;45244;-66
2023/01/11 10:05:27;;;;;;;;;4.33;2.00;;;;;-147.14;100.00;58812.66;6246344;22;45918;-67
2023/01/11 10:08:28;;;;;;;;;3.00;2.00;;;;;-147.14;100.00;58812.66;6246141;22;45299;-67
2023/01/11 10:11:04;;;;;;;;;2.33;2.00;;;;;-147.14;100.00;58812.66;6245892;22;45225;-66
2023/01/11 10:13:47;;;;;;;;;3.00;3.00;;;;;-147.14;100.00;58812.66;6247430;22;45363;-65
2023/01/11 10:16:37;;;;;;;;;6.00;3.00;;;;;-147.14;100.00;58812.66;6218895;22;46280;-66
2023/01/11 10:19:15;;;;;;;;;4.00;4.00;;;;;-147.14;100.00;58812.66;6219497;22;45344;-66
2023/01/11 10:21:44;;;;;;;;;2.33;2.00;;;;;-147.14;100.00;58812.66;6220074;22;45206;-65
2023/01/11 10:24:22;;;;;;;;;6.33;3.00;;;;;-147.14;100.00;58812.66;6246558;22;45276;-66
2023/01/11 10:26:49;;;;;;;;;3.00;2.00;;;;;-147.14;100.00;58812.66;6246787;22;45289;-66
2023/01/11 10:29:38;;;;;;;;;7.67;5.33;;;;;-147.14;100.00;58812.66;6246024;22;45223;-63
2023/01/11 10:32:32;;;;;;;;;8.67;3.00;;;;;-147.14;100.00;58812.66;6244333;22;45272;-66
2023/01/11 10:35:23;;;;;;;;;6.33;3.33;;;;;-147.14;100.00;58812.66;6245669;22;45828;-65
2023/01/11 10:38:09;;;;;;;;;5.00;3.67;;;;;-147.14;100.00;58812.66;6224486;22;46172;-66
2023/01/11 10:41:05;;;;;;;;;3.00;3.00;;;;;-147.14;100.00;58812.66;6246156;22;45260;-66
2023/01/11 10:43:34;;;;;;;;;5.67;4.00;;;;;-147.14;100.00;58812.66;6220905;22;45321;-67
2023/01/11 10:46:15;;;;;;;;;8.67;3.33;;;;;-147.14;100.00;58812.66;6242979;22;45394;-67
2023/01/11 10:48:43;;;;;;;;;4.00;2.75;;;;;-147.14;100.00;58812.66;6246447;22;46850;-67
2023/01/11 10:51:31;;;;;;;;;3.67;2.67;;;;;-147.14;100.00;58812.66;6245710;22;45247;-66
2023/01/11 10:54:09;;;;;;;;;2.00;2.00;;;;;-147.14;100.00;58812.66;6219527;22;45296;-66
2023/01/11 10:56:48;;;;;;;;;3.67;2.00;;;;;-147.14;100.00;58812.66;6220055;22;45432;-67
2023/01/11 10:59:20;;;;;;;;;6.75;3.00;;;;;-147.14;100.00;58812.66;6217751;22;46154;-67
2023/01/11 11:01:59;;;;;;;;;3.00;2.75;;;;;-147.14;100.00;58812.66;6218754;22;45186;-67
2023/01/11 11:04:47;;;;;;;;;1.00;1.00;;;;;-147.14;100.00;58812.66;6246297;22;45308;-67
2023/01/11 11:07:38;;;;;;;;;4.25;2.00;;;;;-147.14;100.00;58812.66;6234304;22;45340;-67
2023/01/11 11:10:20;;;;;;;;;5.25;4.25;;;;;-147.14;100.00;58812.66;6234528;22;46435;-67
2023/01/11 11:13:12;;;;;;;;;6.33;3.33;;;;;-147.14;100.00;58812.66;6217025;22;45279;-67
2023/01/11 11:15:49;;;;;;;;;5.50;2.00;;;;;-147.14;100.00;58812.66;6237709;22;45236;-66
2023/01/11 11:18:15;;;;;;;;;2.50;2.25;;;;;-147.14;100.00;58812.66;6245297;22;45239;-67
2023/01/11 11:20:42;;;;;;;;;2.25;2.25;;;;;-147.14;100.00;58812.66;6216392;22;65705;-67
2023/01/11 11:23:20;;;;;;;;;2.50;2.50;;;;;-147.14;100.00;58812.66;6242409;22;45344;-67
2023/01/11 11:25:48;;;;;;;;;3.00;2.50;;;;;-147.14;100.00;58812.66;6218301;22;45386;-67
2023/01/11 11:28:13;;;;;;;;;2.00;2.00;;;;;-147.14;100.00;58812.66;6217233;22;45236;-66
2023/01/11 11:30:44;;;;;;;;;4.00;2.25;;;;;-147.14;100.00;58812.66;6244030;22;45983;-66
2023/01/11 11:33:19;;;;;;;;;1.75;1.00;;;;;-147.14;100.00;58812.66;6215687;22;45293;-67
2023/01/11 11:36:03;;;;;;;;;1.25;1.25;;;;;-147.14;100.00;58812.66;6218360;22;45310;-67
2023/01/11 11:38:30;;;;;;;;;5.75;3.00;;;;;-147.14;100.00;58812.66;6246050;22;45378;-68
2023/01/11 11:40:58;;;;;;;;;3.25;3.00;;;;;-147.14;100.00;58812.66;6245169;22;46051;-67
2023/01/11 11:43:25;;;;;;;;;8.25;5.00;;;;;-147.14;100.00;58812.66;6244402;22;45237;-67
2023/01/11 11:45:58;;;;;;;;;3.00;2.00;;;;;-147.14;100.00;58812.66;6245325;22;45221;-67
2023/01/11 11:48:26;;;;;;;;;7.00;7.00;;;;;-147.14;100.00;58812.66;6245884;22;45225;-67
2023/01/11 11:50:54;;;;;;;;;6.00;4.00;;;;;-147.14;100.00;58812.66;6245170;22;46199;-67
2023/01/11 11:53:36;;;;;;;;;4.50;2.00;;;;;-147.14;100.00;58812.66;6218718;22;45289;-67
2023/01/11 11:56:06;;;;;;;;;4.50;3.25;;;;;-147.14;100.00;58812.66;6245146;22;45227;-67
2023/01/11 11:58:32;;;;;;;;;3.33;2.33;;;;;-147.14;100.00;58812.66;6245577;22;45288;-67
2023/01/11 12:00:57;;;;;;;;;3.00;3.00;;;;;-147.14;100.00;58812.66;6217754;22;45293;-66
2023/01/11 12:03:29;;;;;;;;;3.00;2.50;;;;;-147.14;100.00;58812.66;6218519;22;45265;-67
2023/01/11 12:05:59;;;;;;;;;3.75;2.00;;;;;-147.14;100.00;58812.66;6245050;22;45283;-67
2023/01/11 12:08:25;;;;;;;;;2.75;1.00;;;;;-147.14;100.00;58812.66;6245172;22;45180;-66
2023/01/11 12:10:57;;;;;;;;;2.25;1.00;;;;;-147.14;100.00;58812.66;6217948;22;62563;-67
2023/01/11 12:13:38;;;;;;;;;2.00;2.00;;;;;-147.14;100.00;58812.66;6245205;22;45212;-67
2023/01/11 12:16:08;;;;;;;;;5.00;3.75;;;;;-147.14;100.00;58812.66;6217876;22;45396;-66
2023/01/11 12:18:41;;;;;;;;;3.50;2.00;;;;;-147.14;100.00;58812.66;6218204;22;45519;-68
2023/01/11 12:21:19;;;;;;;;;7.00;1.50;;;;;-147.14;100.00;58812.66;6244354;22;46239;-66
2023/01/11 12:23:45;;;;;;;;;2.75;1.75;;;;;-147.14;100.00;58812.66;6218562;22;45225;-67
2023/01/11 12:26:31;;;;;;;;;2.25;1.00;;;;;-147.14;100.00;58812.66;6246881;22;45172;-67
2023/01/11 12:29:14;;;;;;;;;6.25;2.00;;;;;-147.14;100.00;58812.66;6247008;22;45361;-66
2023/01/11 12:31:47;;;;;;;;;3.50;2.25;;;;;-147.14;100.00;58812.66;6245762;22;45994;-66
2023/01/11 12:34:24;;;;;;;;;2.50;2.50;;;;;-147.14;100.00;58812.66;6246331;22;45250;-67
2023/01/11 12:37:12;;;;;;;;;7.00;3.33;;;;;-147.14;100.00;58812.66;6245669;22;45317;-66
2023/01/11 12:39:46;;;;;;;;;4.00;1.50;;;;;-147.14;100.00;58812.66;6219517;22;45425;-66
2023/01/11 12:42:34;;;;;;;;;5.00;3.00;;;;;-147.14;100.00;58812.66;6246530;22;46234;-66
2023/01/11 12:45:29;;;;;;;;;3.00;1.25;;;;;-147.14;100.00;58812.66;6187554;22;45496;-66
2023/01/11 12:48:26;;;;;;;;;4.25;1.00;;;;;-147.14;100.00;58812.66;6216200;22;45290;-66
2023/01/11 12:51:17;;;;;;;;;9.33;7.67;;;;;-147.14;100.00;58812.66;6237931;22;45327;-66
2023/01/11 12:53:58;;;;;;;;;6.00;2.00;;;;;-147.14;100.00;58812.66;6216791;22;45874;-66
2023/01/11 12:56:41;;;;;;;;;2.50;2.00;;;;;-147.14;100.00;58812.66;6218170;22;45193;-65
2023/01/11 12:59:35;;;;;;;;;4.75;1.00;;;;;-147.14;100.00;58812.66;6218803;22;45284;-66
2023/01/11 13:02:10;;;;;;;;;2.67;2.33;;;;;-147.14;100.00;58812.66;6246469;22;45615;-66
2023/01/11 13:04:46;;;;;;;;;2.75;1.00;;;;;-147.14;100.00;58812.66;6219403;22;45419;-65
2023/01/11 13:07:23;;;;;;;;;4.00;2.33;;;;;-147.14;100.00;58812.66;6218867;22;45253;-65
2023/01/11 13:10:13;;;;;;;;;2.67;1.00;;;;;-147.14;100.00;58812.66;6246845;22;45245;-65
2023/01/11 13:12:45;;;;;;;;;6.25;1.00;;;;;-147.14;100.00;58812.66;6247313;22;45425;-66
2023/01/11 13:15:11;;;;;;;;;1.67;1.00;;;;;-147.14;100.00;58812.66;6245978;22;46085;-66
2023/01/11 13:17:46;;;;;;;;;1.67;1.67;;;;;-147.14;100.00;58812.66;6247017;22;45177;-66
2023/01/11 13:20:18;;;;;;;;;4.50;2.00;;;;;-147.14;100.00;58812.66;6218928;22;45206;-67
2023/01/11 13:22:50;;;;;;;;;1.00;1.00;;;;;-147.14;100.00;58812.66;6247186;22;45182;-66
2023/01/11 13:25:23;;;;;;;;;2.67;2.67;;;;;-147.14;100.00;58812.66;6218385;22;46045;-66
2023/01/11 13:27:50;;;;;;;;;8.67;3.00;;;;;-147.14;100.00;58812.66;6219483;22;45437;-66
2023/01/11 13:30:18;;;;;;;;;3.00;2.00;;;;;-147.14;100.00;58812.66;6218204;22;45310;-65
2023/01/11 13:32:58;;;;;;;;;4.67;2.67;;;;;-147.14;100.00;58812.66;6246504;22;45222;-66
2023/01/11 13:35:34;;;;;;;;;0.00;0.00;;;;;-147.14;100.00;58812.66;6219152;22;45352;-66
2023/01/11 13:38:12;;;;;;;;;3.25;3.25;;;;;-147.14;100.00;58812.66;6211236;22;45304;-65
2023/01/11 13:40:42;;;;;;;;;3.00;2.75;;;;;-147.14;100.00;58812.66;6217848;22;45307;-65
2023/01/11 13:43:49;;;;;;;;;4.00;2.00;;;;;-147.14;100.00;58812.66;6218358;22;45330;-65
2023/01/11 13:46:30;;;;;;;;;2.75;0.00;;;;;-147.14;100.00;58812.66;6243681;22;45495;-65
2023/01/11 13:49:07;;;;;;;;;1.75;1.00;;;;;-147.14;100.00;58812.66;6245619;22;45351;-65
2023/01/11 13:51:43;;;;;;;;;1.75;0.75;;;;;-147.14;100.00;58812.66;6245896;22;45361;-65
2023/01/11 13:54:16;;;;;;;;;4.75;1.75;;;;;-147.14;100.00;58812.66;6244696;22;45463;-66
2023/01/11 13:56:47;;;;;;;;;2.00;2.00;;;;;-147.14;100.00;58812.66;6219324;22;46297;-66
2023/01/11 13:59:18;;;;;;;;;2.00;2.00;;;;;-147.14;100.00;58812.66;6219083;22;45301;-65
2023/01/11 14:02:01;;;;;;;;;4.00;3.00;;;;;-147.14;100.00;58812.66;6245008;22;45398;-65
2023/01/11 14:04:51;;;;;;;;;7.33;3.33;;;;;-147.14;100.00;58812.66;6244661;22;45463;-65
2023/01/11 14:07:38;;;;;;;;;4.00;2.00;;;;;-147.14;100.00;58812.66;6246607;22;46241;-65
2023/01/11 14:10:28;;;;;;;;;3.00;1.00;;;;;-147.14;100.00;58812.66;6218351;22;45234;-65
2023/01/11 14:16:50;;;;;;;;;6.00;2.33;;;;;-147.14;100.00;58812.66;6245673;22;45225;-65
2023/01/11 14:19:29;;;;;;;;;4.67;2.00;;;;;-147.14;100.00;58812.66;6245512;22;47271;-65
2023/01/11 14:22:23;;;;;;;;;10.67;7.33;;;;;-147.14;100.00;58812.66;6246049;22;45288;-65
2023/01/11 14:25:14;;;;;;;;;1.33;1.00;;;;;-147.14;100.00;58812.66;6233025;22;45190;-65
2023/01/11 14:27:50;;;;;;;;;4.00;1.67;;;;;-147.14;100.00;58812.66;6246157;22;45283;-65
2023/01/11 14:30:18;;;;;;;;;4.00;1.50;;;;;-147.14;100.00;58812.66;6218003;22;45396;-64
2023/01/11 14:32:52;;;;;;;;;1.33;1.00;;;;;-147.14;100.00;58812.66;6246563;22;45173;-65
2023/01/11 14:35:42;;;;;;;;;2.00;1.33;;;;;-147.14;100.00;58812.66;6246762;22;45266;-65
2023/01/11 14:38:23;;;;;;;;;2.67;2.00;;;;;-147.14;100.00;58812.66;6245570;22;45501;-65
2023/01/11 14:40:52;;;;;;;;;5.00;1.00;;;;;-147.14;100.00;58812.66;6219057;22;45203;-65
2023/01/11 14:43:33;;;;;;;;;4.67;2.00;;;;;-147.14;100.00;58812.66;6219539;22;45278;-65
2023/01/11 14:46:16;;;;;;;;;5.75;1.00;;;;;-147.14;100.00;58812.66;6245637;22;45349;-66
2023/01/11 14:48:50;;;;;;;;;3.33;2.00;;;;;-147.14;100.00;58812.66;6245807;22;45478;-66
2023/01/11 14:51:43;;;;;;;;;4.33;1.00;;;;;-147.14;100.00;58812.66;6245556;22;45264;-66
2023/01/11 14:54:10;;;;;;;;;4.33;2.67;;;;;-147.14;100.00;58812.66;6218203;22;45823;-67
2023/01/11 14:56:35;;;;;;;;;3.33;2.00;;;;;-147.14;100.00;58812.66;6243784;22;45360;-66
2023/01/11 14:59:06;;;;;;;;;3.67;1.00;;;;;-147.14;100.00;58812.66;6245879;22;45323;-65
2023/01/11 15:02:05;;;;;;;;;3.00;1.67;;;;;-147.14;100.00;58812.66;6219779;22;46034;-64
2023/01/11 15:04:34;;;;;;;;;1.67;1.33;;;;;-147.14;100.00;58812.66;6244897;22;45356;-65
2023/01/11 15:07:19;;;;;;;;;4.00;1.67;;;;;-147.14;100.00;58812.66;6244759;22;45096;-65
2023/01/11 15:09:49;;;;;;;;;2.00;2.00;;;;;-147.14;100.00;58812.66;6218368;22;45198;-65
2023/01/11 15:12:20;;;;;;;;;2.33;1.00;;;;;-147.14;100.00;58812.66;6217973;22;46339;-65
2023/01/11 15:14:48;;;;;;;;;4.00;2.00;;;;;-147.14;100.00;58812.66;6245978;22;45231;-65
2023/01/11 15:20:06;;;;;;;;;1.33;1.00;;;;;-147.14;100.00;58812.66;6246010;22;45521;-65
2023/01/11 15:22:32;;;;;;;;;8.33;2.00;;;;;-147.14;100.00;58812.66;6246035;22;45301;-64
2023/01/11 15:25:19;;;;;;;;;5.33;1.33;;;;;-147.14;100.00;58812.66;6245544;22;45281;-65
2023/01/11 15:27:44;;;;;;;;;4.67;3.33;;;;;-147.14;100.00;58812.66;6246197;22;45189;-65
2023/01/11 15:30:28;;;;;;;;;2.00;2.00;;;;;-147.14;100.00;58812.66;6217956;22;54564;-64
2023/01/11 15:33:16;;;;;;;;;2.67;1.00;;;;;-147.14;100.00;58812.66;6245456;22;47036;-65
2023/01/11 15:35:54;;;;;;;;;3.00;2.00;;;;;-147.14;100.00;58812.66;6246029;22;45357;-66
2023/01/11 15:38:32;;;;;;;;;0.67;0.67;;;;;-147.14;100.00;58812.66;6246548;22;45153;-66
2023/01/11 15:42:02;;;;;;;;;2.67;2.33;;;;;-147.14;100.00;58812.66;6218863;22;45242;-65
2023/01/11 15:43:57;;;;;;;;;4.67;1.67;;;;;-147.14;100.00;58812.66;6244999;22;45435;-65
2023/01/11 15:47:00;;;;;;;;;2.33;2.33;;;;;-147.14;100.00;58812.66;6244740;22;45246;-65
2023/01/11 15:49:31;;;;;;;;;5.00;3.00;;;;;-147.14;100.00;58812.66;6246119;22;45426;-64
2023/01/11 15:52:15;;;;;;;;;6.67;1.00;;;;;-147.14;100.00;58812.66;6245156;22;45544;-65
2023/01/11 15:55:09;;;;;;;;;3.67;2.00;;;;;-147.14;100.00;58812.66;6245661;22;46107;-65
2023/01/11 15:58:09;;;;;;;;;4.00;1.00;;;;;-147.14;100.00;58812.66;6243503;22;45555;-65
2023/01/11 16:01:27;;;;;;;;;5.00;1.00;;;;;-147.14;100.00;58812.66;6219743;22;45366;-65
2023/01/11 16:04:19;;;;;;;;;1.00;1.00;;;;;-147.14;100.00;58812.66;6195338;22;45644;-66
2023/01/11 16:06:46;;;;;;;;;1.33;1.33;;;;;-147.14;100.00;58812.66;6247059;22;45347;-65
2023/01/11 16:09:20;;;;;;;;;2.33;1.00;;;;;-147.14;100.00;58812.66;6246150;22;45363;-65
2023/01/11 16:12:13;;;;;;;;;3.00;2.00;;;;;-147.14;100.00;58812.66;6247336;22;45447;-64
2023/01/11 16:14:47;;;;;;;;;6.00;2.00;;;;;-147.14;100.00;58812.66;6246932;22;45265;-66
2023/01/11 16:17:14;;;;;;;;;2.67;1.67;;;;;-147.14;100.00;58812.66;6246510;22;46166;-65
2023/01/11 16:19:42;;;;;;;;;4.00;1.67;;;;;-147.14;100.00;58812.66;6246621;22;45263;-64
2023/01/11 16:22:18;;;;;;;;;5.00;2.00;;;;;-147.14;100.00;58812.66;6246277;22;45308;-65
2023/01/11 16:24:46;;;;;;;;;1.33;1.33;;;;;-147.14;100.00;58812.66;6246534;22;45194;-65
2023/01/11 16:27:27;;;;;;;;;7.67;3.33;;;;;-147.14;100.00;58812.66;6219137;22;46036;-66
2023/01/11 16:29:53;;;;;;;;;3.00;1.00;;;;;-147.14;100.00;58812.66;6218464;22;45316;-67
2023/01/11 16:32:28;;;;;;;;;2.00;2.00;;;;;-147.14;100.00;58812.66;6246101;22;49581;-65
2023/01/11 16:34:54;;;;;;;;;4.33;2.33;;;;;-147.14;100.00;58812.66;6246353;22;45218;-67
2023/01/11 16:37:30;;;;;;;;;2.33;1.33;;;;;-147.14;100.00;58812.66;6246544;22;46816;-65
2023/01/11 16:40:03;;;;;;;;;6.67;4.00;;;;;-147.14;100.00;58812.66;6219141;22;45269;-65
2023/01/11 16:42:32;;;;;;;;;5.33;2.33;;;;;-147.14;100.00;58812.66;6219396;22;45312;-64
2023/01/11 16:45:00;;;;;;;;;3.33;1.67;;;;;-147.14;100.00;58812.66;6219390;22;45471;-66
2023/01/11 16:47:25;;;;;;;;;1.00;1.00;;;;;-147.14;100.00;58812.66;6220265;22;46291;-65
2023/01/11 16:50:10;;;;;;;;;2.67;2.67;;;;;-147.14;100.00;58812.66;6246250;22;64738;-64
2023/01/11 16:52:45;;;;;;;;;2.67;1.67;;;;;-147.14;100.00;58812.66;6247150;22;45339;-66
2023/01/11 16:55:28;;;;;;;;;2.33;2.33;;;;;-147.14;100.00;58812.66;6219185;22;45414;-66
2023/01/11 16:58:04;;;;;;;;;6.67;3.00;;;;;-147.14;100.00;58812.66;6218612;22;46950;-65
2023/01/11 17:00:36;;;;;;;;;4.00;3.00;;;;;-147.14;100.00;58812.66;6219156;22;45312;-65
2023/01/11 17:03:17;;;;;;;;;10.33;4.00;;;;;-147.14;100.00;58812.66;6246400;22;45237;-65
2023/01/11 17:05:53;;;;;;;;;7.00;4.00;;;;;-147.14;100.00;58812.66;6247236;22;45166;-65
2023/01/11 17:08:28;;;;;;;;;7.00;4.00;;;;;-147.14;100.00;58812.66;6246420;22;45949;-65
2023/01/11 17:11:17;;;;;;;;;4.00;2.00;;;;;-147.14;100.00;58812.66;6245651;22;45272;-65
2023/01/11 17:14:05;;;;;;;;;5.00;3.00;;;;;-147.14;100.00;58812.66;6246873;22;45202;-65
2023/01/11 17:16:36;;;;;;;;;2.33;2.33;;;;;-147.14;100.00;58812.66;6247170;22;45324;-65
2023/01/11 17:19:07;;;;;;;;;3.00;2.33;;;;;-147.14;100.00;58812.66;6219236;22;45345;-65
2023/01/11 17:21:33;;;;;;;;;2.67;2.67;;;;;-147.14;100.00;58812.66;6219194;22;45266;-65
2023/01/11 17:24:01;;;;;;;;;5.00;3.00;;;;;-147.14;100.00;58812.66;6245959;22;50681;-66
2023/01/11 17:26:29;;;;;;;;;5.00;3.33;;;;;-147.14;100.00;58812.66;6219567;22;45521;-65